EW2611 Weather Reports


Display with metric or nautical units.
time (UTC)temp
F
wind
direction
speed
MPH
gust
MPH
rain 1hr
in
rain 24hr
in
rain mn
in
humidity
%
barometer
mb
20260906074509 76 360 0.0 0.0 0.00 0.00 0.00 90 1011.3
20260906073008 76 360 0.0 0.0 0.00 0.00 0.00 90 1011.3
20260906071506 76 360 0.0 0.0 0.00 0.00 0.00 90 1011.4
20260906070006 76 360 0.0 0.0 0.00 0.00 0.00 90 1011.4
20260906064505 76 360 0.0 0.0 0.00 0.00 0.00 90 1011.8
20260906063002 76 360 0.0 0.0 0.00 0.00 0.00 90 1011.5
20260906061600 74 360 0.0 0.0 0.00 0.00 0.00 90 1011.3
20260906060134 74 360 0.0 0.0 0.00 0.00 0.00 91 1011.3
20260906054611 75 360 0.0 0.0 0.00 0.00 0.00 91 1011.4
20260906053055 75 360 0.0 0.0 0.00 0.00 0.00 90 1011.4
20260906051558 75 360 0.0 0.0 0.00 0.00 0.00 90 1011.4
20260906050051 75 360 0.0 0.0 0.00 0.00 0.00 90 1011.6
20260906044551 76 360 0.0 0.0 0.00 0.00 0.00 90 1011.6
20260906043051 76 360 0.0 0.0 0.00 0.00 0.00 90 1011.8
20260906041550 77 360 0.0 0.0 0.00 0.00 0.00 89 1011.7
20260906040049 77 360 0.0 0.0 0.00 0.00 0.00 89 1011.7
20260906034600 77 360 0.0 0.0 0.00 0.00 0.00 89 1011.7
20260906033049 77 360 0.0 0.0 0.00 0.00 0.00 87 1011.5
20260906031550 78 360 0.0 0.0 0.00 0.00 0.00 85 1011.5
20260906030048 79 360 0.0 0.0 0.00 0.00 0.00 84 1011.5
20260906024553 79 360 0.0 0.0 0.00 0.00 0.00 83 1011.3
20260906023047 79 360 0.0 0.0 0.00 0.00 0.00 83 1011.1
20260906021551 79 360 0.0 0.0 0.00 0.00 0.00 81 1011.1
20260906020046 80 360 0.0 0.0 0.00 0.00 0.00 82 1011.2
20260906014550 80 360 0.0 0.0 0.00 0.00 0.00 81 1011.0
20260906013047 80 360 0.0 0.0 0.00 0.00 0.00 82 1010.9
20260906011545 81 360 0.0 0.0 0.00 0.00 0.00 81 1010.3
20260906004556 81 360 0.0 0.0 0.00 0.00 0.00 81 1009.7
20260906003044 83 360 0.0 0.0 0.00 0.00 0.00 81 1009.7
20260906001557 84 360 0.0 0.0 0.00 0.00 0.00 80 1009.9
20260906000042 85 360 0.0 0.0 0.00 0.00 0.00 76 1009.9
20260905234540 87 360 0.0 0.0 0.00 0.00 0.00 72 1010.3
20260905233041 88 360 0.0 0.0 0.00 0.00 0.00 68 1010.3
20260905231540 89 360 0.0 0.0 0.00 0.00 0.00 65 1010.0
20260905230040 91 360 0.0 0.0 0.00 0.00 0.00 62 1009.7
20260905224538 92 360 0.0 0.0 0.00 0.00 0.00 60 1009.6
20260905223048 92 360 0.0 0.0 0.00 0.00 0.00 58 1009.7
20260905221536 93 360 0.0 0.0 0.00 0.00 0.00 55 1009.9
20260905220033 93 360 0.0 0.0 0.00 0.00 0.00 55 1009.8
20260905214534 93 360 0.0 0.0 0.00 0.00 0.00 55 1010.0
20260905213033 94 360 0.0 0.0 0.00 0.00 0.00 55 1009.9
20260905211528 94 360 0.0 0.0 0.00 0.00 0.00 56 1010.0
20260905210042 94 360 0.0 0.0 0.00 0.00 0.00 55 1010.1
20260905204527 95 360 0.0 0.0 0.00 0.00 0.00 55 1010.1
20260905203025 95 360 0.0 0.0 0.00 0.00 0.00 55 1010.2
20260905201526 95 360 0.0 0.0 0.00 0.00 0.00 55 1010.5
20260905200030 94 360 0.0 0.0 0.00 0.00 0.00 56 1010.8
20260905194518 93 360 0.0 0.0 0.00 0.00 0.00 57 1011.0
20260905193020 94 360 0.0 0.0 0.00 0.00 0.00 57 1011.1
20260905191515 93 360 0.0 0.0 0.00 0.00 0.00 60 1011.2
20260905190013 94 360 0.0 0.0 0.00 0.00 0.00 56 1011.6
20260905184524 93 360 0.0 0.0 0.00 0.00 0.00 58 1011.7
20260905183011 93 360 0.0 0.0 0.00 0.00 0.00 58 1012.0
20260905181509 93 360 0.0 0.0 0.00 0.00 0.00 57 1012.2
20260905180009 93 360 0.0 0.0 0.00 0.00 0.00 58 1012.5
20260905174505 92 360 0.0 0.0 0.00 0.00 0.00 60 1012.5
20260905173005 92 360 0.0 0.0 0.00 0.00 0.00 61 1012.6
20260905171504 91 360 0.0 0.0 0.00 0.00 0.00 61 1012.7
20260905170002 91 360 0.0 0.0 0.00 0.00 0.00 62 1012.8
20260905164600 91 360 0.0 0.0 0.00 0.00 0.00 64 1013.0
20260905163058 91 360 0.0 0.0 0.00 0.00 0.00 65 1013.2
20260905161556 90 360 0.0 0.0 0.00 0.00 0.00 67 1013.3
20260905160056 91 360 0.0 0.0 0.00 0.00 0.00 66 1013.4
20260905154600 90 360 0.0 0.0 0.00 0.00 0.00 68 1013.5
20260905153050 89 360 0.0 0.0 0.00 0.00 0.00 70 1013.5
20260905151555 88 360 0.0 0.0 0.00 0.00 0.00 74 1013.5
20260905150048 87 360 0.0 0.0 0.00 0.00 0.00 77 1013.6
20260905144546 87 360 0.0 0.0 0.00 0.00 0.00 77 1013.6
20260905143038 86 360 0.0 0.0 0.00 0.00 0.00 84 1013.7
20260905141533 83 360 0.0 0.0 0.00 0.00 0.00 86 1013.7
20260905140033 81 360 0.0 0.0 0.00 0.00 0.00 89 1013.8
20260905134534 79 360 0.0 0.0 0.00 0.00 0.00 89 1014.0
20260905133023 78 360 0.0 0.0 0.00 0.00 0.00 87 1014.2
20260905131521 77 360 0.0 0.0 0.00 0.00 0.00 85 1014.2
20260905130019 77 360 0.0 0.0 0.00 0.00 0.00 84 1014.2
20260905124521 75 360 0.0 0.0 0.00 0.00 0.00 84 1014.2
20260905123049 75 360 0.0 0.0 0.00 0.00 0.00 84 1014.2
20260905121516 74 360 0.0 0.0 0.00 0.00 0.00 85 1014.0
20260905120010 73 360 0.0 0.0 0.00 0.00 0.00 86 1013.8
20260905114513 73 360 0.0 0.0 0.00 0.00 0.00 86 1013.6
20260905113008 72 360 0.0 0.0 0.00 0.00 0.00 86 1013.4
20260905111506 72 360 0.0 0.0 0.00 0.00 0.00 87 1013.3
20260905110005 72 360 0.0 0.0 0.00 0.00 0.00 87 1013.0
20260905104502 72 360 0.0 0.0 0.00 0.00 0.00 87 1013.0
20260905103002 73 360 0.0 0.0 0.00 0.00 0.00 87 1012.8
20260905101600 73 360 0.0 0.0 0.00 0.00 0.00 87 1012.7
20260905100108 73 360 0.0 0.0 0.00 0.00 0.00 87 1012.8
20260905094559 73 360 0.0 0.0 0.00 0.00 0.00 88 1012.8
20260905093103 73 360 0.0 0.0 0.00 0.00 0.00 88 1012.8
20260905091602 73 360 0.0 0.0 0.00 0.00 0.00 88 1012.6
20260905090056 73 360 0.0 0.0 0.00 0.00 0.00 88 1012.6
20260905084607 73 360 0.0 0.0 0.00 0.00 0.00 88 1012.5
20260905083054 73 360 0.0 0.0 0.00 0.00 0.00 89 1012.4
20260905081552 73 360 0.0 0.0 0.00 0.00 0.00 89 1012.4
20260905080126 73 360 0.0 0.0 0.00 0.00 0.00 89 1012.4